createdAt,value
2018-07-27T00:02:14.769Z,18.47
2018-07-27T00:05:19.328Z,18.41
2018-07-27T00:08:23.580Z,18.39
2018-07-27T00:11:27.944Z,18.40
2018-07-27T00:14:32.460Z,18.37
2018-07-27T00:17:37.352Z,18.28
2018-07-27T00:20:41.610Z,18.29
2018-07-27T00:23:45.865Z,18.18
2018-07-27T00:26:50.125Z,18.04
2018-07-27T00:29:54.449Z,17.98
2018-07-27T00:32:58.728Z,17.91
2018-07-27T00:36:03.035Z,17.99
2018-07-27T00:39:10.098Z,17.91
2018-07-27T00:42:14.410Z,17.79
2018-07-27T00:45:18.818Z,17.73
2018-07-27T00:48:23.153Z,17.68
2018-07-27T00:51:27.491Z,17.62
2018-07-27T00:54:31.789Z,17.54
2018-07-27T00:57:36.090Z,17.46
2018-07-27T01:00:40.400Z,17.44
2018-07-27T01:03:44.706Z,17.44
2018-07-27T01:06:49.140Z,17.37
2018-07-27T01:09:53.453Z,17.37
2018-07-27T01:12:57.763Z,17.33
2018-07-27T01:16:02.097Z,17.31
2018-07-27T01:19:06.649Z,17.24
2018-07-27T01:22:10.928Z,17.26
2018-07-27T01:25:15.202Z,17.20
2018-07-27T01:28:19.471Z,17.11
2018-07-27T01:31:24.052Z,17.00
2018-07-27T01:34:28.344Z,16.92
2018-07-27T01:37:33.775Z,16.95
2018-07-27T01:40:38.249Z,16.94
2018-07-27T01:43:42.653Z,16.90
2018-07-27T01:46:46.918Z,16.84
2018-07-27T01:49:51.249Z,16.85
2018-07-27T01:52:55.746Z,16.82
2018-07-27T01:56:00.118Z,16.76
2018-07-27T01:59:04.746Z,16.67
2018-07-27T02:02:09.194Z,16.57
2018-07-27T02:05:13.656Z,15.99
2018-07-27T02:08:17.968Z,15.87
2018-07-27T02:11:22.242Z,16.01
2018-07-27T02:14:26.936Z,15.95
2018-07-27T02:17:31.251Z,15.96
2018-07-27T02:20:35.507Z,16.01
2018-07-27T02:23:39.819Z,16.07
2018-07-27T02:26:44.011Z,16.10
2018-07-27T02:29:48.248Z,16.24
2018-07-27T02:32:52.481Z,16.28
2018-07-27T02:35:57.093Z,16.28
2018-07-27T02:39:01.341Z,16.26
2018-07-27T02:42:05.585Z,16.22
2018-07-27T02:45:09.894Z,16.22
2018-07-27T02:48:14.176Z,16.32
2018-07-27T02:51:18.651Z,16.36
2018-07-27T02:54:22.899Z,16.42
2018-07-27T02:57:27.143Z,16.38
2018-07-27T03:00:31.425Z,16.31
2018-07-27T03:03:36.396Z,16.24
2018-07-27T03:06:40.801Z,16.15
2018-07-27T03:09:45.089Z,16.25
2018-07-27T03:12:49.501Z,16.15
2018-07-27T03:15:53.548Z,16.15
2018-07-27T03:18:57.913Z,16.05
2018-07-27T03:22:02.197Z,16.01
2018-07-27T03:25:07.117Z,15.96
2018-07-27T03:28:11.433Z,15.98
2018-07-27T03:31:15.709Z,15.91
2018-07-27T03:34:19.942Z,15.91
2018-07-27T03:37:24.229Z,15.86
2018-07-27T03:40:28.480Z,16.03
2018-07-27T03:43:32.801Z,15.91
2018-07-27T03:46:37.315Z,15.77
2018-07-27T03:49:41.577Z,15.90
2018-07-27T03:52:45.908Z,15.83
2018-07-27T03:55:50.236Z,15.81
2018-07-27T03:58:54.521Z,15.84
2018-07-27T04:01:58.853Z,15.87
2018-07-27T04:05:03.855Z,15.92
2018-07-27T04:08:08.109Z,15.92
2018-07-27T04:11:12.404Z,15.97
2018-07-27T04:14:17.137Z,16.00
2018-07-27T04:17:21.517Z,16.01
2018-07-27T04:20:25.830Z,16.07
2018-07-27T04:23:30.169Z,16.07
2018-07-27T04:26:34.503Z,16.07
2018-07-27T04:29:38.964Z,16.03
2018-07-27T04:32:43.276Z,16.07
2018-07-27T04:35:47.617Z,16.21
2018-07-27T04:38:51.865Z,16.21
2018-07-27T04:41:56.381Z,16.33
2018-07-27T04:45:00.462Z,16.37
2018-07-27T04:48:04.899Z,16.45
2018-07-27T04:51:09.565Z,16.49
2018-07-27T04:54:13.891Z,16.60
2018-07-27T04:57:18.615Z,16.48
2018-07-27T05:00:23.000Z,16.46
2018-07-27T05:03:27.446Z,16.66
2018-07-27T05:06:31.981Z,16.81
2018-07-27T05:09:36.420Z,16.96
2018-07-27T05:12:40.821Z,17.13
2018-07-27T05:15:45.957Z,17.20
2018-07-27T05:18:50.569Z,17.40
2018-07-27T05:21:54.581Z,17.44
2018-07-27T05:24:58.859Z,17.64
2018-07-27T05:28:03.869Z,17.77
2018-07-27T05:31:08.173Z,17.83
2018-07-27T05:34:12.759Z,17.94
2018-07-27T05:37:17.049Z,18.10
2018-07-27T05:40:21.473Z,18.47
2018-07-27T05:43:25.748Z,18.29
2018-07-27T05:46:30.105Z,18.58
2018-07-27T05:49:34.438Z,19.13
2018-07-27T05:52:39.512Z,19.61
2018-07-27T05:55:43.720Z,20.11
2018-07-27T05:58:48.497Z,20.32
2018-07-27T06:01:52.792Z,21.19
2018-07-27T06:04:57.224Z,21.33
2018-07-27T06:08:01.426Z,20.81
2018-07-27T06:11:05.898Z,20.88
2018-07-27T06:14:11.103Z,20.88
2018-07-27T06:17:15.372Z,20.77
2018-07-27T06:20:19.800Z,20.92
2018-07-27T06:23:24.069Z,21.62
2018-07-27T06:26:28.531Z,22.61
2018-07-27T06:29:32.840Z,23.71
2018-07-27T06:32:37.305Z,25.16
2018-07-27T06:35:41.581Z,25.69
2018-07-27T06:38:45.607Z,26.67
2018-07-27T06:41:49.917Z,25.25
2018-07-27T06:44:54.229Z,24.08
2018-07-27T06:47:58.562Z,24.18
2018-07-27T06:51:03.328Z,25.83
2018-07-27T06:54:07.812Z,26.49
2018-07-27T06:57:12.140Z,25.34
2018-07-27T07:00:17.242Z,25.77
2018-07-27T07:03:21.901Z,25.13
2018-07-27T07:06:26.462Z,23.25
2018-07-27T07:09:32.030Z,24.59
2018-07-27T07:12:36.392Z,24.28
2018-07-27T07:15:40.673Z,25.44
2018-07-27T07:18:45.546Z,25.65
2018-07-27T07:21:50.124Z,23.74
2018-07-27T07:24:54.525Z,24.33
2018-07-27T07:27:58.809Z,23.14
2018-07-27T07:31:03.338Z,23.56
2018-07-27T07:34:07.974Z,23.79
2018-07-27T07:37:12.245Z,24.35
2018-07-27T07:40:16.542Z,24.51
2018-07-27T07:43:20.821Z,24.68
2018-07-27T07:46:25.158Z,24.81
2018-07-27T07:49:29.458Z,24.43
2018-07-27T07:52:33.685Z,24.79
2018-07-27T07:55:37.958Z,25.29
2018-07-27T07:58:42.591Z,24.63
2018-07-27T08:01:46.838Z,24.60
2018-07-27T08:04:51.124Z,25.30
2018-07-27T08:07:55.506Z,25.72
2018-07-27T08:10:59.799Z,25.92
2018-07-27T08:14:04.213Z,24.85
2018-07-27T08:17:08.747Z,24.88
2018-07-27T08:20:13.007Z,24.27
2018-07-27T08:23:17.311Z,24.60
2018-07-27T08:26:42.063Z,25.40
2018-07-27T08:29:46.583Z,25.43
2018-07-27T08:32:50.841Z,25.53
2018-07-27T08:35:55.116Z,25.64
2018-07-27T08:38:59.158Z,25.44
2018-07-27T08:42:03.483Z,25.36
2018-07-27T08:45:07.868Z,25.60
2018-07-27T08:48:12.257Z,25.88
2018-07-27T08:51:16.510Z,26.28
2018-07-27T08:54:20.893Z,26.39
2018-07-27T08:57:25.158Z,26.43
2018-07-27T09:00:46.561Z,26.49
2018-07-27T09:03:50.866Z,26.35
2018-07-27T09:06:55.425Z,26.46
2018-07-27T09:09:59.965Z,25.97
2018-07-27T09:13:04.261Z,25.55
2018-07-27T09:16:09.126Z,25.67
2018-07-27T09:19:13.537Z,26.05
2018-07-27T09:22:17.850Z,26.07
2018-07-27T09:25:23.011Z,26.26
2018-07-27T09:28:27.477Z,26.48
2018-07-27T09:31:31.983Z,26.63
2018-07-27T09:34:36.338Z,25.97
2018-07-27T09:37:40.659Z,26.30
2018-07-27T09:40:45.609Z,26.23
2018-07-27T09:43:49.897Z,26.32
2018-07-27T09:46:54.231Z,26.77
2018-07-27T09:49:58.575Z,26.38
2018-07-27T09:53:03.016Z,26.42
2018-07-27T09:56:07.297Z,26.33
2018-07-27T09:59:11.620Z,26.44
2018-07-27T10:02:15.869Z,26.71
2018-07-27T10:05:20.627Z,26.75
2018-07-27T10:08:25.684Z,27.14
2018-07-27T10:11:29.942Z,27.01
2018-07-27T10:14:34.265Z,26.75
2018-07-27T10:17:38.529Z,26.61
2018-07-27T10:20:42.893Z,26.21
2018-07-27T10:23:47.201Z,26.59
2018-07-27T10:26:51.538Z,26.57
2018-07-27T10:29:55.819Z,26.44
2018-07-27T10:33:00.091Z,26.62
2018-07-27T10:36:04.720Z,26.73
2018-07-27T10:39:11.230Z,27.12
2018-07-27T10:42:15.924Z,26.86
2018-07-27T10:45:20.218Z,26.84
2018-07-27T10:48:24.607Z,26.99
2018-07-27T10:51:29.084Z,27.07
2018-07-27T10:54:33.421Z,27.18
2018-07-27T10:57:37.709Z,27.45
2018-07-27T11:00:42.094Z,27.41
2018-07-27T11:03:46.474Z,27.44
2018-07-27T11:06:50.958Z,27.31
2018-07-27T11:09:55.738Z,27.05
2018-07-27T11:13:00.048Z,27.36
2018-07-27T11:16:04.547Z,27.53
2018-07-27T11:19:09.259Z,27.30
2018-07-27T11:22:13.388Z,27.40
2018-07-27T11:25:17.749Z,27.33
2018-07-27T11:28:22.218Z,27.46
2018-07-27T11:31:26.851Z,27.66
2018-07-27T11:34:31.353Z,27.35
2018-07-27T11:37:35.745Z,27.24
2018-07-27T11:40:40.119Z,27.59
2018-07-27T11:43:44.401Z,27.54
2018-07-27T11:46:48.878Z,27.42
2018-07-27T11:49:53.207Z,27.45
2018-07-27T11:52:57.657Z,27.26
2018-07-27T11:56:01.945Z,26.98
2018-07-27T11:59:06.290Z,26.91
2018-07-27T12:02:10.646Z,26.77
2018-07-27T12:05:15.031Z,26.95
2018-07-27T12:08:19.408Z,27.33
2018-07-27T12:11:23.677Z,27.29
2018-07-27T12:14:28.368Z,27.42
2018-07-27T12:17:32.565Z,27.60
2018-07-27T12:20:36.953Z,27.71
2018-07-27T12:23:41.149Z,27.93
2018-07-27T12:26:45.781Z,27.83
2018-07-27T12:29:49.813Z,27.65
2018-07-27T12:32:54.096Z,27.89
2018-07-27T12:35:58.380Z,28.11
2018-07-27T12:39:02.905Z,28.05
2018-07-27T12:42:07.489Z,28.14
2018-07-27T12:45:11.861Z,28.06
2018-07-27T12:48:16.164Z,28.02
2018-07-27T12:51:20.487Z,27.66
2018-07-27T12:54:24.779Z,27.49
2018-07-27T12:57:29.423Z,27.83
2018-07-27T13:00:33.712Z,27.86
2018-07-27T13:03:37.994Z,27.90
2018-07-27T13:06:42.389Z,27.91
2018-07-27T13:09:46.664Z,27.88
2018-07-27T13:12:50.991Z,28.11
2018-07-27T13:15:55.507Z,28.19
2018-07-27T13:18:59.801Z,28.25
2018-07-27T13:22:04.457Z,28.22
2018-07-27T13:25:08.833Z,27.91
2018-07-27T13:28:13.054Z,28.08
2018-07-27T13:31:17.463Z,28.13
2018-07-27T13:34:39.294Z,28.11
2018-07-27T13:37:43.855Z,28.13
2018-07-27T13:40:48.281Z,28.21
2018-07-27T13:43:52.839Z,28.28
2018-07-27T13:46:57.305Z,28.06
2018-07-27T13:50:01.621Z,28.17
2018-07-27T13:53:06.114Z,28.26
2018-07-27T13:56:10.531Z,28.41
2018-07-27T13:59:14.906Z,28.36
2018-07-27T14:02:19.326Z,28.40
2018-07-27T14:05:23.778Z,28.37
2018-07-27T14:08:28.198Z,28.16
2018-07-27T14:11:32.480Z,28.34
2018-07-27T14:14:36.778Z,28.32
2018-07-27T14:17:41.080Z,28.57
2018-07-27T14:20:45.482Z,28.45
2018-07-27T14:23:50.004Z,28.43
2018-07-27T14:26:55.034Z,28.56
2018-07-27T14:29:59.356Z,28.50
2018-07-27T14:33:03.677Z,28.57
2018-07-27T14:36:07.943Z,28.42
2018-07-27T14:39:14.236Z,28.59
2018-07-27T14:42:18.576Z,28.65
2018-07-27T14:45:22.890Z,28.72
2018-07-27T14:48:27.430Z,28.55
2018-07-27T14:51:32.120Z,28.58
2018-07-27T14:54:37.257Z,28.32
2018-07-27T14:57:41.699Z,28.40
2018-07-27T15:00:45.993Z,28.51
2018-07-27T15:03:50.354Z,28.27
2018-07-27T15:06:54.853Z,28.03
2018-07-27T15:09:59.195Z,28.22
2018-07-27T15:13:03.521Z,28.26
2018-07-27T15:16:07.976Z,28.23
2018-07-27T15:19:12.278Z,28.06
2018-07-27T15:22:16.814Z,28.23
2018-07-27T15:25:21.119Z,28.07
2018-07-27T15:28:25.287Z,28.20
2018-07-27T15:31:29.705Z,28.04
2018-07-27T15:34:34.433Z,28.05
2018-07-27T15:37:38.825Z,28.18
2018-07-27T15:40:43.169Z,28.22
2018-07-27T15:43:47.489Z,28.29
2018-07-27T15:46:51.805Z,28.33
2018-07-27T15:49:56.146Z,28.28
2018-07-27T15:53:01.604Z,28.10
2018-07-27T15:56:06.332Z,27.97
2018-07-27T15:59:10.873Z,27.73
2018-07-27T16:02:15.503Z,27.63
2018-07-27T16:05:19.999Z,27.73
2018-07-27T16:08:24.401Z,28.01
2018-07-27T16:11:28.948Z,28.12
2018-07-27T16:14:33.361Z,28.03
2018-07-27T16:17:37.650Z,28.13
2018-07-27T16:20:41.905Z,28.14
2018-07-27T16:23:47.032Z,28.20
2018-07-27T16:26:52.127Z,28.05
2018-07-27T16:29:56.823Z,28.12
2018-07-27T16:33:01.933Z,27.99
2018-07-27T16:36:06.693Z,27.98
2018-07-27T16:39:11.594Z,27.94
2018-07-27T16:42:16.208Z,27.93
2018-07-27T16:45:20.976Z,27.89
2018-07-27T16:48:26.148Z,27.80
2018-07-27T16:51:30.673Z,27.53
2018-07-27T16:54:36.837Z,27.49
2018-07-27T16:57:43.674Z,27.35
2018-07-27T17:00:48.410Z,27.53
2018-07-27T17:03:52.779Z,29.06
2018-07-27T17:06:56.928Z,30.73
2018-07-27T17:10:01.420Z,29.97
2018-07-27T17:13:05.568Z,29.50
2018-07-27T17:16:10.043Z,29.44
2018-07-27T17:19:14.466Z,28.81
2018-07-27T17:22:18.860Z,28.61
2018-07-27T17:25:23.484Z,27.51
2018-07-27T17:28:27.802Z,27.06
2018-07-27T17:31:32.230Z,26.81
2018-07-27T17:34:36.864Z,26.68
2018-07-27T17:37:41.096Z,26.60
2018-07-27T17:40:45.661Z,26.50
2018-07-27T17:43:50.220Z,26.36
2018-07-27T17:46:54.771Z,26.32
2018-07-27T17:49:59.418Z,26.23
2018-07-27T17:53:03.562Z,26.12
2018-07-27T17:56:08.136Z,26.01
2018-07-27T17:59:12.548Z,25.94
2018-07-27T18:02:16.941Z,25.83
2018-07-27T18:05:22.484Z,25.74
2018-07-27T18:08:27.046Z,25.67
2018-07-27T18:11:31.360Z,25.60
2018-07-27T18:14:35.773Z,25.47
2018-07-27T18:17:40.057Z,25.39
2018-07-27T18:20:44.480Z,25.28
2018-07-27T18:23:48.656Z,25.20
2018-07-27T18:26:53.029Z,25.15
2018-07-27T18:29:57.365Z,25.15
2018-07-27T18:33:01.688Z,24.95
2018-07-27T18:36:06.096Z,24.83
2018-07-27T18:39:12.802Z,24.70
2018-07-27T18:42:17.581Z,24.58
2018-07-27T18:45:21.921Z,24.43
2018-07-27T18:48:26.466Z,24.36
2018-07-27T18:51:30.983Z,24.23
2018-07-27T18:54:37.065Z,24.10
2018-07-27T18:57:41.685Z,24.00
2018-07-27T19:00:46.228Z,23.89
2018-07-27T19:03:50.742Z,23.79
2018-07-27T19:06:55.219Z,23.67
2018-07-27T19:10:00.035Z,23.56
2018-07-27T19:13:04.525Z,23.48
2018-07-27T19:16:09.673Z,23.35
2018-07-27T19:19:14.095Z,23.27
2018-07-27T19:22:18.932Z,23.18
2018-07-27T19:25:23.171Z,23.09
2018-07-27T19:28:27.562Z,23.03
2018-07-27T19:31:34.045Z,22.97
2018-07-27T19:34:38.539Z,22.88
2018-07-27T19:37:43.029Z,22.80
2018-07-27T19:40:47.264Z,22.68
2018-07-27T19:43:52.012Z,22.62
2018-07-27T19:46:56.825Z,22.52
2018-07-27T19:50:01.729Z,22.41
2018-07-27T19:53:06.426Z,22.33
2018-07-27T19:56:10.821Z,22.24
2018-07-27T19:59:15.514Z,22.22
2018-07-27T20:02:20.111Z,22.14
2018-07-27T20:05:24.898Z,22.04
2018-07-27T20:08:29.519Z,21.92
2018-07-27T20:11:34.218Z,21.84
2018-07-27T20:14:39.031Z,21.82
2018-07-27T20:17:43.620Z,21.82
2018-07-27T20:20:48.129Z,21.77
2018-07-27T20:23:52.539Z,21.73
2018-07-27T20:26:56.971Z,21.68
2018-07-27T20:30:01.385Z,21.65
2018-07-27T20:33:06.712Z,21.50
2018-07-27T20:36:12.062Z,21.42
2018-07-27T20:39:16.569Z,21.39
2018-07-27T20:42:21.070Z,21.34
2018-07-27T20:45:25.501Z,21.30
2018-07-27T20:48:30.290Z,21.27
2018-07-27T20:51:35.443Z,21.19
2018-07-27T20:54:39.864Z,21.08
2018-07-27T20:57:44.566Z,21.02
2018-07-27T21:00:48.809Z,20.93
2018-07-27T21:03:53.442Z,20.92
2018-07-27T21:06:57.977Z,20.90
2018-07-27T21:10:02.267Z,20.84
2018-07-27T21:13:06.631Z,20.77
2018-07-27T21:16:11.000Z,20.69
2018-07-27T21:19:15.395Z,20.73
2018-07-27T21:22:20.117Z,20.65
2018-07-27T21:25:24.524Z,20.23
2018-07-27T21:28:28.832Z,20.05
2018-07-27T21:31:33.165Z,20.02
2018-07-27T21:34:37.451Z,20.07
2018-07-27T21:37:41.890Z,20.06
2018-07-27T21:40:46.195Z,20.06
2018-07-27T21:43:50.535Z,20.06
2018-07-27T21:46:54.776Z,20.02
2018-07-27T21:49:59.033Z,20.02
2018-07-27T21:53:03.690Z,19.96
2018-07-27T21:56:08.122Z,19.95
2018-07-27T21:59:12.564Z,19.86
2018-07-27T22:02:16.855Z,19.87
2018-07-27T22:05:21.103Z,19.77
2018-07-27T22:08:25.506Z,19.18
2018-07-27T22:11:29.821Z,19.26
2018-07-27T22:14:34.236Z,19.26
2018-07-27T22:17:38.635Z,19.23
2018-07-27T22:20:43.519Z,19.26
2018-07-27T22:23:48.087Z,19.30
2018-07-27T22:26:52.355Z,19.26
2018-07-27T22:29:56.889Z,19.27
2018-07-27T22:33:00.930Z,19.28
2018-07-27T22:36:05.221Z,19.30
2018-07-27T22:39:10.890Z,19.25
2018-07-27T22:42:15.173Z,19.17
2018-07-27T22:45:19.457Z,19.11
2018-07-27T22:48:23.746Z,19.07
2018-07-27T22:51:28.104Z,19.02
2018-07-27T22:54:32.376Z,19.00
2018-07-27T22:57:36.856Z,19.02
2018-07-27T23:00:41.158Z,19.02
2018-07-27T23:03:45.633Z,18.97
2018-07-27T23:06:49.974Z,18.96
2018-07-27T23:09:54.290Z,18.94
2018-07-27T23:12:58.709Z,18.88
2018-07-27T23:16:03.368Z,18.81
2018-07-27T23:19:07.690Z,18.80
2018-07-27T23:22:12.033Z,18.71
2018-07-27T23:25:16.298Z,18.68
2018-07-27T23:28:20.565Z,18.66
2018-07-27T23:31:24.831Z,18.68
2018-07-27T23:34:29.780Z,18.59
2018-07-27T23:37:34.115Z,18.60
2018-07-27T23:40:38.528Z,18.58
2018-07-27T23:43:42.993Z,18.54
2018-07-27T23:46:47.230Z,18.49
2018-07-27T23:49:51.493Z,18.48
2018-07-27T23:52:56.548Z,18.45
2018-07-27T23:56:00.925Z,18.39
2018-07-27T23:59:05.219Z,18.36
